sensor_id;sensor_type;location;lat;lon;timestamp;temperature;humidity
52381;DHT22;38310;52.796;6.942;2022-08-25T00:01:36;19.60;99.90
52381;DHT22;38310;52.796;6.942;2022-08-25T00:04:05;19.50;99.90
52381;DHT22;38310;52.796;6.942;2022-08-25T00:06:31;19.50;99.90
52381;DHT22;38310;52.796;6.942;2022-08-25T00:08:57;19.40;99.90
52381;DHT22;38310;52.796;6.942;2022-08-25T00:11:26;19.40;99.90
52381;DHT22;38310;52.796;6.942;2022-08-25T00:13:57;19.40;99.90
52381;DHT22;38310;52.796;6.942;2022-08-25T00:16:24;19.40;99.90
52381;DHT22;38310;52.796;6.942;2022-08-25T00:18:54;19.40;99.90
52381;DHT22;38310;52.796;6.942;2022-08-25T00:21:21;19.30;99.90
52381;DHT22;38310;52.796;6.942;2022-08-25T00:23:47;19.30;99.90
52381;DHT22;38310;52.796;6.942;2022-08-25T00:26:13;19.20;99.90
52381;DHT22;38310;52.796;6.942;2022-08-25T00:28:41;19.20;99.90
52381;DHT22;38310;52.796;6.942;2022-08-25T00:31:11;19.20;99.90
52381;DHT22;38310;52.796;6.942;2022-08-25T00:33:37;19.20;99.90
52381;DHT22;38310;52.796;6.942;2022-08-25T00:36:03;19.10;99.90
52381;DHT22;38310;52.796;6.942;2022-08-25T00:38:29;19.10;99.90
52381;DHT22;38310;52.796;6.942;2022-08-25T00:40:56;19.10;99.90
52381;DHT22;38310;52.796;6.942;2022-08-25T00:43:56;19.10;99.90
52381;DHT22;38310;52.796;6.942;2022-08-25T00:46:28;19.00;99.90
52381;DHT22;38310;52.796;6.942;2022-08-25T00:48:58;19.00;99.90
52381;DHT22;38310;52.796;6.942;2022-08-25T00:51:39;19.00;99.90
52381;DHT22;38310;52.796;6.942;2022-08-25T00:54:08;19.00;99.90
52381;DHT22;38310;52.796;6.942;2022-08-25T00:56:35;18.90;99.90
52381;DHT22;38310;52.796;6.942;2022-08-25T00:59:02;18.90;99.90
52381;DHT22;38310;52.796;6.942;2022-08-25T01:01:28;18.90;99.90
52381;DHT22;38310;52.796;6.942;2022-08-25T01:03:55;18.90;99.90
52381;DHT22;38310;52.796;6.942;2022-08-25T01:06:21;18.90;99.90
52381;DHT22;38310;52.796;6.942;2022-08-25T01:08:47;18.90;99.90
52381;DHT22;38310;52.796;6.942;2022-08-25T01:11:12;18.90;99.90
52381;DHT22;38310;52.796;6.942;2022-08-25T01:13:42;18.90;99.90
52381;DHT22;38310;52.796;6.942;2022-08-25T01:16:10;18.80;99.90
52381;DHT22;38310;52.796;6.942;2022-08-25T01:18:44;18.80;99.90
52381;DHT22;38310;52.796;6.942;2022-08-25T01:21:11;18.80;99.90
52381;DHT22;38310;52.796;6.942;2022-08-25T01:23:37;18.80;99.90
52381;DHT22;38310;52.796;6.942;2022-08-25T01:26:17;18.70;99.90
52381;DHT22;38310;52.796;6.942;2022-08-25T01:31:13;18.60;99.90
52381;DHT22;38310;52.796;6.942;2022-08-25T01:33:40;18.60;99.90
52381;DHT22;38310;52.796;6.942;2022-08-25T01:36:07;18.70;99.90
52381;DHT22;38310;52.796;6.942;2022-08-25T01:38:32;18.60;99.90
52381;DHT22;38310;52.796;6.942;2022-08-25T01:40:59;18.60;99.90
52381;DHT22;38310;52.796;6.942;2022-08-25T01:43:35;18.60;99.90
52381;DHT22;38310;52.796;6.942;2022-08-25T01:46:01;18.60;99.90
52381;DHT22;38310;52.796;6.942;2022-08-25T01:48:27;18.60;99.90
52381;DHT22;38310;52.796;6.942;2022-08-25T01:50:53;18.50;99.90
52381;DHT22;38310;52.796;6.942;2022-08-25T01:53:25;18.50;99.90
52381;DHT22;38310;52.796;6.942;2022-08-25T01:55:52;18.50;99.90
52381;DHT22;38310;52.796;6.942;2022-08-25T01:58:23;18.50;99.90
52381;DHT22;38310;52.796;6.942;2022-08-25T02:00:51;18.50;99.90
52381;DHT22;38310;52.796;6.942;2022-08-25T02:03:19;18.40;99.90
52381;DHT22;38310;52.796;6.942;2022-08-25T02:05:45;18.40;99.90
52381;DHT22;38310;52.796;6.942;2022-08-25T02:08:11;18.50;99.90
52381;DHT22;38310;52.796;6.942;2022-08-25T02:10:38;18.40;99.90
52381;DHT22;38310;52.796;6.942;2022-08-25T02:13:04;18.40;99.90
52381;DHT22;38310;52.796;6.942;2022-08-25T02:15:30;18.30;99.90
52381;DHT22;38310;52.796;6.942;2022-08-25T02:17:56;18.30;99.90
52381;DHT22;38310;52.796;6.942;2022-08-25T02:20:23;18.30;99.90
52381;DHT22;38310;52.796;6.942;2022-08-25T02:22:52;18.30;99.90
52381;DHT22;38310;52.796;6.942;2022-08-25T02:25:18;18.20;99.90
52381;DHT22;38310;52.796;6.942;2022-08-25T02:27:45;18.20;99.90
52381;DHT22;38310;52.796;6.942;2022-08-25T02:30:15;18.20;99.90
52381;DHT22;38310;52.796;6.942;2022-08-25T02:32:41;18.10;99.90
52381;DHT22;38310;52.796;6.942;2022-08-25T02:35:07;18.10;99.90
52381;DHT22;38310;52.796;6.942;2022-08-25T02:37:34;18.10;99.90
52381;DHT22;38310;52.796;6.942;2022-08-25T02:39:59;18.10;99.90
52381;DHT22;38310;52.796;6.942;2022-08-25T02:42:26;18.00;99.90
52381;DHT22;38310;52.796;6.942;2022-08-25T02:44:51;18.00;99.90
52381;DHT22;38310;52.796;6.942;2022-08-25T02:47:18;18.00;99.90
52381;DHT22;38310;52.796;6.942;2022-08-25T02:49:44;18.00;99.90
52381;DHT22;38310;52.796;6.942;2022-08-25T02:52:10;18.00;99.90
52381;DHT22;38310;52.796;6.942;2022-08-25T02:54:36;18.00;99.90
52381;DHT22;38310;52.796;6.942;2022-08-25T02:57:02;18.00;99.90
52381;DHT22;38310;52.796;6.942;2022-08-25T02:59:28;17.90;99.90
52381;DHT22;38310;52.796;6.942;2022-08-25T03:01:54;17.90;99.90
52381;DHT22;38310;52.796;6.942;2022-08-25T03:04:19;17.90;99.90
52381;DHT22;38310;52.796;6.942;2022-08-25T03:06:45;17.90;99.90
52381;DHT22;38310;52.796;6.942;2022-08-25T03:09:12;17.90;99.90
52381;DHT22;38310;52.796;6.942;2022-08-25T03:11:38;17.90;99.90
52381;DHT22;38310;52.796;6.942;2022-08-25T03:14:06;17.90;99.90
52381;DHT22;38310;52.796;6.942;2022-08-25T03:19:31;17.80;99.90
52381;DHT22;38310;52.796;6.942;2022-08-25T03:21:57;17.90;99.90
52381;DHT22;38310;52.796;6.942;2022-08-25T03:24:25;17.80;99.90
52381;DHT22;38310;52.796;6.942;2022-08-25T03:26:51;17.80;99.90
52381;DHT22;38310;52.796;6.942;2022-08-25T03:29:31;17.80;99.90
52381;DHT22;38310;52.796;6.942;2022-08-25T03:31:58;17.80;99.90
52381;DHT22;38310;52.796;6.942;2022-08-25T03:34:25;17.80;99.90
52381;DHT22;38310;52.796;6.942;2022-08-25T03:36:53;17.70;99.90
52381;DHT22;38310;52.796;6.942;2022-08-25T03:39:21;17.70;99.90
52381;DHT22;38310;52.796;6.942;2022-08-25T03:41:48;17.70;99.90
52381;DHT22;38310;52.796;6.942;2022-08-25T03:44:15;17.70;99.90
52381;DHT22;38310;52.796;6.942;2022-08-25T03:46:43;17.60;99.90
52381;DHT22;38310;52.796;6.942;2022-08-25T03:49:11;17.70;99.90
52381;DHT22;38310;52.796;6.942;2022-08-25T03:51:43;17.70;99.90
52381;DHT22;38310;52.796;6.942;2022-08-25T03:54:11;17.70;99.90
52381;DHT22;38310;52.796;6.942;2022-08-25T03:56:37;17.60;99.90
52381;DHT22;38310;52.796;6.942;2022-08-25T03:59:03;17.70;99.90
52381;DHT22;38310;52.796;6.942;2022-08-25T04:01:29;17.70;99.90
52381;DHT22;38310;52.796;6.942;2022-08-25T04:03:55;17.60;99.90
52381;DHT22;38310;52.796;6.942;2022-08-25T04:06:21;17.70;99.90
52381;DHT22;38310;52.796;6.942;2022-08-25T04:08:47;17.70;99.90
52381;DHT22;38310;52.796;6.942;2022-08-25T04:11:15;17.70;99.90
52381;DHT22;38310;52.796;6.942;2022-08-25T04:13:45;17.70;99.90
52381;DHT22;38310;52.796;6.942;2022-08-25T04:16:19;17.70;99.90
52381;DHT22;38310;52.796;6.942;2022-08-25T04:18:45;17.70;99.90
52381;DHT22;38310;52.796;6.942;2022-08-25T04:21:12;17.70;99.90
52381;DHT22;38310;52.796;6.942;2022-08-25T04:23:39;17.80;99.90
52381;DHT22;38310;52.796;6.942;2022-08-25T04:26:14;17.80;99.90
52381;DHT22;38310;52.796;6.942;2022-08-25T04:28:41;17.80;99.90
52381;DHT22;38310;52.796;6.942;2022-08-25T04:31:08;17.80;99.90
52381;DHT22;38310;52.796;6.942;2022-08-25T04:33:35;17.70;99.90
52381;DHT22;38310;52.796;6.942;2022-08-25T04:36:01;17.80;99.90
52381;DHT22;38310;52.796;6.942;2022-08-25T04:38:27;17.70;99.90
52381;DHT22;38310;52.796;6.942;2022-08-25T04:41:01;17.70;99.90
52381;DHT22;38310;52.796;6.942;2022-08-25T04:43:28;17.70;99.90
52381;DHT22;38310;52.796;6.942;2022-08-25T04:45:54;17.70;99.90
52381;DHT22;38310;52.796;6.942;2022-08-25T04:48:20;17.70;99.90
52381;DHT22;38310;52.796;6.942;2022-08-25T04:50:47;17.80;99.90
52381;DHT22;38310;52.796;6.942;2022-08-25T04:53:13;17.80;99.90
52381;DHT22;38310;52.796;6.942;2022-08-25T04:55:45;17.70;99.90
52381;DHT22;38310;52.796;6.942;2022-08-25T04:58:12;17.80;99.90
52381;DHT22;38310;52.796;6.942;2022-08-25T05:00:39;17.80;99.90
52381;DHT22;38310;52.796;6.942;2022-08-25T05:03:05;17.80;99.90
52381;DHT22;38310;52.796;6.942;2022-08-25T05:05:35;17.80;99.90
52381;DHT22;38310;52.796;6.942;2022-08-25T05:08:01;17.80;99.90
52381;DHT22;38310;52.796;6.942;2022-08-25T05:10:26;17.80;99.90
52381;DHT22;38310;52.796;6.942;2022-08-25T05:12:52;17.90;99.90
52381;DHT22;38310;52.796;6.942;2022-08-25T05:15:18;17.90;99.90
52381;DHT22;38310;52.796;6.942;2022-08-25T05:18:02;17.90;99.90
52381;DHT22;38310;52.796;6.942;2022-08-25T05:20:28;17.90;99.90
52381;DHT22;38310;52.796;6.942;2022-08-25T05:22:58;17.90;99.90
52381;DHT22;38310;52.796;6.942;2022-08-25T05:25:24;17.90;99.90
52381;DHT22;38310;52.796;6.942;2022-08-25T05:27:50;18.00;99.90
52381;DHT22;38310;52.796;6.942;2022-08-25T05:30:15;18.00;99.90
52381;DHT22;38310;52.796;6.942;2022-08-25T05:32:41;18.10;99.90
52381;DHT22;38310;52.796;6.942;2022-08-25T05:35:07;18.10;99.90
52381;DHT22;38310;52.796;6.942;2022-08-25T05:37:33;18.10;99.90
52381;DHT22;38310;52.796;6.942;2022-08-25T05:39:59;18.20;99.90
52381;DHT22;38310;52.796;6.942;2022-08-25T05:42:26;18.20;99.90
52381;DHT22;38310;52.796;6.942;2022-08-25T05:44:53;18.20;99.90
52381;DHT22;38310;52.796;6.942;2022-08-25T05:47:19;18.30;99.90
52381;DHT22;38310;52.796;6.942;2022-08-25T05:49:45;18.30;99.90
52381;DHT22;38310;52.796;6.942;2022-08-25T05:52:11;18.40;99.90
52381;DHT22;38310;52.796;6.942;2022-08-25T05:54:37;18.40;99.90
52381;DHT22;38310;52.796;6.942;2022-08-25T05:57:05;18.40;99.90
52381;DHT22;38310;52.796;6.942;2022-08-25T05:59:31;18.50;99.90
52381;DHT22;38310;52.796;6.942;2022-08-25T06:01:57;18.60;99.90
52381;DHT22;38310;52.796;6.942;2022-08-25T06:04:41;18.60;99.90
52381;DHT22;38310;52.796;6.942;2022-08-25T06:07:07;18.70;99.90
52381;DHT22;38310;52.796;6.942;2022-08-25T06:09:33;18.80;99.90
52381;DHT22;38310;52.796;6.942;2022-08-25T06:11:59;18.90;99.90
52381;DHT22;38310;52.796;6.942;2022-08-25T06:14:24;19.00;99.90
52381;DHT22;38310;52.796;6.942;2022-08-25T06:16:50;19.00;99.90
52381;DHT22;38310;52.796;6.942;2022-08-25T06:19:17;19.10;99.90
52381;DHT22;38310;52.796;6.942;2022-08-25T06:21:43;19.20;99.90
52381;DHT22;38310;52.796;6.942;2022-08-25T06:24:09;19.40;99.90
52381;DHT22;38310;52.796;6.942;2022-08-25T06:31:00;19.50;99.90
52381;DHT22;38310;52.796;6.942;2022-08-25T06:33:27;19.60;99.90
52381;DHT22;38310;52.796;6.942;2022-08-25T06:35:54;19.70;99.90
52381;DHT22;38310;52.796;6.942;2022-08-25T06:38:20;19.80;99.90
52381;DHT22;38310;52.796;6.942;2022-08-25T06:40:47;19.90;99.90
52381;DHT22;38310;52.796;6.942;2022-08-25T06:43:12;20.00;99.90
52381;DHT22;38310;52.796;6.942;2022-08-25T06:45:38;20.20;99.90
52381;DHT22;38310;52.796;6.942;2022-08-25T06:48:04;20.30;99.90
52381;DHT22;38310;52.796;6.942;2022-08-25T06:50:39;20.30;99.90
52381;DHT22;38310;52.796;6.942;2022-08-25T06:53:06;20.50;99.90
52381;DHT22;38310;52.796;6.942;2022-08-25T06:55:34;20.70;99.90
52381;DHT22;38310;52.796;6.942;2022-08-25T06:58:03;20.80;99.90
52381;DHT22;38310;52.796;6.942;2022-08-25T07:00:30;20.90;99.90
52381;DHT22;38310;52.796;6.942;2022-08-25T07:02:56;21.00;99.90
52381;DHT22;38310;52.796;6.942;2022-08-25T07:05:23;21.20;99.90
52381;DHT22;38310;52.796;6.942;2022-08-25T07:07:49;21.30;99.90
52381;DHT22;38310;52.796;6.942;2022-08-25T07:10:15;21.50;99.90
52381;DHT22;38310;52.796;6.942;2022-08-25T07:12:40;21.60;99.90
52381;DHT22;38310;52.796;6.942;2022-08-25T07:15:06;21.70;99.90
52381;DHT22;38310;52.796;6.942;2022-08-25T07:17:32;21.90;99.90
52381;DHT22;38310;52.796;6.942;2022-08-25T07:19:58;22.00;99.90
52381;DHT22;38310;52.796;6.942;2022-08-25T07:22:24;22.10;99.90
52381;DHT22;38310;52.796;6.942;2022-08-25T07:24:50;22.30;99.90
52381;DHT22;38310;52.796;6.942;2022-08-25T07:27:15;22.40;99.90
52381;DHT22;38310;52.796;6.942;2022-08-25T07:29:41;22.60;99.90
52381;DHT22;38310;52.796;6.942;2022-08-25T07:32:07;22.70;99.90
52381;DHT22;38310;52.796;6.942;2022-08-25T07:34:32;22.70;99.90
52381;DHT22;38310;52.796;6.942;2022-08-25T07:37:18;22.90;99.90
52381;DHT22;38310;52.796;6.942;2022-08-25T07:39:44;23.00;99.90
52381;DHT22;38310;52.796;6.942;2022-08-25T07:42:12;23.10;99.90
52381;DHT22;38310;52.796;6.942;2022-08-25T07:44:38;23.20;99.90
52381;DHT22;38310;52.796;6.942;2022-08-25T07:47:04;23.40;99.90
52381;DHT22;38310;52.796;6.942;2022-08-25T07:49:30;23.50;99.90
52381;DHT22;38310;52.796;6.942;2022-08-25T07:51:55;23.50;99.90
52381;DHT22;38310;52.796;6.942;2022-08-25T07:54:22;23.60;99.90
52381;DHT22;38310;52.796;6.942;2022-08-25T07:56:48;23.80;99.90
52381;DHT22;38310;52.796;6.942;2022-08-25T07:59:14;23.90;99.90
52381;DHT22;38310;52.796;6.942;2022-08-25T08:01:40;24.10;99.90
52381;DHT22;38310;52.796;6.942;2022-08-25T08:04:05;24.20;99.90
52381;DHT22;38310;52.796;6.942;2022-08-25T08:06:31;24.40;99.90
52381;DHT22;38310;52.796;6.942;2022-08-25T08:08:57;24.50;99.90
52381;DHT22;38310;52.796;6.942;2022-08-25T08:11:33;24.60;99.90
52381;DHT22;38310;52.796;6.942;2022-08-25T08:14:02;24.80;99.90
52381;DHT22;38310;52.796;6.942;2022-08-25T08:16:29;24.80;99.90
52381;DHT22;38310;52.796;6.942;2022-08-25T08:18:56;25.00;99.90
52381;DHT22;38310;52.796;6.942;2022-08-25T08:21:31;25.10;99.90
52381;DHT22;38310;52.796;6.942;2022-08-25T08:23:58;25.20;99.90
52381;DHT22;38310;52.796;6.942;2022-08-25T08:26:24;25.30;99.90
52381;DHT22;38310;52.796;6.942;2022-08-25T08:28:51;25.40;99.90
52381;DHT22;38310;52.796;6.942;2022-08-25T08:31:22;25.60;99.90
52381;DHT22;38310;52.796;6.942;2022-08-25T08:33:49;25.70;99.90
52381;DHT22;38310;52.796;6.942;2022-08-25T08:36:16;25.80;99.90
52381;DHT22;38310;52.796;6.942;2022-08-25T08:38:44;25.90;99.90
52381;DHT22;38310;52.796;6.942;2022-08-25T08:47:49;26.50;99.90
52381;DHT22;38310;52.796;6.942;2022-08-25T08:50:51;26.70;99.90
52381;DHT22;38310;52.796;6.942;2022-08-25T08:53:43;26.90;99.90
52381;DHT22;38310;52.796;6.942;2022-08-25T08:56:30;27.00;99.90
52381;DHT22;38310;52.796;6.942;2022-08-25T08:59:03;27.10;99.90
52381;DHT22;38310;52.796;6.942;2022-08-25T09:01:38;27.30;99.90
52381;DHT22;38310;52.796;6.942;2022-08-25T09:04:32;27.50;99.90
52381;DHT22;38310;52.796;6.942;2022-08-25T09:07:00;27.70;99.90
52381;DHT22;38310;52.796;6.942;2022-08-25T09:09:33;27.90;99.90
52381;DHT22;38310;52.796;6.942;2022-08-25T09:12:16;28.10;99.90
52381;DHT22;38310;52.796;6.942;2022-08-25T09:15:29;28.20;99.90
52381;DHT22;38310;52.796;6.942;2022-08-25T09:18:22;28.40;99.90
52381;DHT22;38310;52.796;6.942;2022-08-25T09:21:05;28.50;99.90
52381;DHT22;38310;52.796;6.942;2022-08-25T09:26:23;28.90;99.90
52381;DHT22;38310;52.796;6.942;2022-08-25T09:29:06;29.00;99.90
52381;DHT22;38310;52.796;6.942;2022-08-25T09:31:35;29.10;99.90
52381;DHT22;38310;52.796;6.942;2022-08-25T09:34:06;29.30;99.90
52381;DHT22;38310;52.796;6.942;2022-08-25T09:36:36;29.50;99.90
52381;DHT22;38310;52.796;6.942;2022-08-25T09:39:03;29.60;99.90
52381;DHT22;38310;52.796;6.942;2022-08-25T09:41:57;29.80;99.90
52381;DHT22;38310;52.796;6.942;2022-08-25T09:44:33;30.00;99.20
52381;DHT22;38310;52.796;6.942;2022-08-25T09:49:59;30.30;96.80
52381;DHT22;38310;52.796;6.942;2022-08-25T09:57:50;30.60;94.50
52381;DHT22;38310;52.796;6.942;2022-08-25T10:05:34;30.90;93.40
52381;DHT22;38310;52.796;6.942;2022-08-25T10:08:23;30.80;93.10
52381;DHT22;38310;52.796;6.942;2022-08-25T10:10:55;31.10;91.90
52381;DHT22;38310;52.796;6.942;2022-08-25T10:13:42;31.10;91.70
52381;DHT22;38310;52.796;6.942;2022-08-25T10:16:26;31.40;91.40
52381;DHT22;38310;52.796;6.942;2022-08-25T10:19:36;31.50;90.30
52381;DHT22;38310;52.796;6.942;2022-08-25T10:24:35;31.50;90.20
52381;DHT22;38310;52.796;6.942;2022-08-25T10:32:13;32.00;90.20
52381;DHT22;38310;52.796;6.942;2022-08-25T10:34:55;31.90;87.40
52381;DHT22;38310;52.796;6.942;2022-08-25T10:37:38;32.00;88.60
52381;DHT22;38310;52.796;6.942;2022-08-25T10:45:50;32.50;85.00
52381;DHT22;38310;52.796;6.942;2022-08-25T10:49:06;32.60;85.40
52381;DHT22;38310;52.796;6.942;2022-08-25T10:56:39;32.50;82.10
52381;DHT22;38310;52.796;6.942;2022-08-25T11:08:08;33.50;83.00
52381;DHT22;38310;52.796;6.942;2022-08-25T11:10:46;33.80;84.30
52381;DHT22;38310;52.796;6.942;2022-08-25T11:13:41;33.90;82.50
52381;DHT22;38310;52.796;6.942;2022-08-25T11:16:19;33.90;82.40
52381;DHT22;38310;52.796;6.942;2022-08-25T11:18:54;34.20;81.10
52381;DHT22;38310;52.796;6.942;2022-08-25T11:24:40;34.40;81.50
52381;DHT22;38310;52.796;6.942;2022-08-25T11:27:16;34.70;81.10
52381;DHT22;38310;52.796;6.942;2022-08-25T11:29:50;34.70;79.80
52381;DHT22;38310;52.796;6.942;2022-08-25T11:32:19;34.40;79.00
52381;DHT22;38310;52.796;6.942;2022-08-25T11:34:48;34.50;78.00
52381;DHT22;38310;52.796;6.942;2022-08-25T11:37:24;35.10;78.40
52381;DHT22;38310;52.796;6.942;2022-08-25T11:49:19;34.70;75.50
52381;DHT22;38310;52.796;6.942;2022-08-25T11:51:49;35.30;74.40
52381;DHT22;38310;52.796;6.942;2022-08-25T11:54:20;35.10;74.80
52381;DHT22;38310;52.796;6.942;2022-08-25T11:57:00;35.30;74.70
52381;DHT22;38310;52.796;6.942;2022-08-25T12:02:35;35.50;74.90
52381;DHT22;38310;52.796;6.942;2022-08-25T12:05:04;36.10;75.00
52381;DHT22;38310;52.796;6.942;2022-08-25T12:30:26;36.10;69.50
52381;DHT22;38310;52.796;6.942;2022-08-25T12:35:59;35.20;69.30
52381;DHT22;38310;52.796;6.942;2022-08-25T12:38:33;35.40;71.10
52381;DHT22;38310;52.796;6.942;2022-08-25T12:41:07;35.90;69.60
52381;DHT22;38310;52.796;6.942;2022-08-25T12:43:45;35.90;68.80
52381;DHT22;38310;52.796;6.942;2022-08-25T12:54:19;37.60;71.50
52381;DHT22;38310;52.796;6.942;2022-08-25T12:56:51;37.60;69.70
52381;DHT22;38310;52.796;6.942;2022-08-25T12:59:23;36.70;64.80
52381;DHT22;38310;52.796;6.942;2022-08-25T13:07:21;37.30;64.40
52381;DHT22;38310;52.796;6.942;2022-08-25T13:13:03;37.80;65.90
52381;DHT22;38310;52.796;6.942;2022-08-25T13:15:38;37.80;66.60
52381;DHT22;38310;52.796;6.942;2022-08-25T13:20:44;37.60;65.70
52381;DHT22;38310;52.796;6.942;2022-08-25T13:23:10;37.60;65.60
52381;DHT22;38310;52.796;6.942;2022-08-25T13:25:40;37.60;65.00
52381;DHT22;38310;52.796;6.942;2022-08-25T13:28:29;37.00;64.30
52381;DHT22;38310;52.796;6.942;2022-08-25T13:31:06;37.00;64.20
52381;DHT22;38310;52.796;6.942;2022-08-25T13:33:33;37.10;65.80
52381;DHT22;38310;52.796;6.942;2022-08-25T13:36:00;37.20;65.80
52381;DHT22;38310;52.796;6.942;2022-08-25T13:38:46;37.20;65.10
52381;DHT22;38310;52.796;6.942;2022-08-25T13:41:23;37.00;64.90
52381;DHT22;38310;52.796;6.942;2022-08-25T13:43:50;36.90;64.30
52381;DHT22;38310;52.796;6.942;2022-08-25T13:46:19;37.00;65.20
52381;DHT22;38310;52.796;6.942;2022-08-25T13:48:45;37.20;65.70
52381;DHT22;38310;52.796;6.942;2022-08-25T13:51:19;36.50;64.80
52381;DHT22;38310;52.796;6.942;2022-08-25T13:53:51;37.40;66.30
52381;DHT22;38310;52.796;6.942;2022-08-25T13:56:38;37.60;65.20
52381;DHT22;38310;52.796;6.942;2022-08-25T13:59:15;38.00;65.30
52381;DHT22;38310;52.796;6.942;2022-08-25T14:01:45;37.20;64.30
52381;DHT22;38310;52.796;6.942;2022-08-25T14:09:55;35.70;64.60
52381;DHT22;38310;52.796;6.942;2022-08-25T14:12:42;35.60;65.60
52381;DHT22;38310;52.796;6.942;2022-08-25T14:17:47;36.00;66.70
52381;DHT22;38310;52.796;6.942;2022-08-25T14:20:23;36.00;66.50
52381;DHT22;38310;52.796;6.942;2022-08-25T14:25:37;36.30;65.60
52381;DHT22;38310;52.796;6.942;2022-08-25T14:28:05;36.30;66.00
52381;DHT22;38310;52.796;6.942;2022-08-25T14:30:35;36.00;65.20
52381;DHT22;38310;52.796;6.942;2022-08-25T14:33:02;35.40;65.70
52381;DHT22;38310;52.796;6.942;2022-08-25T14:35:28;35.50;66.20
52381;DHT22;38310;52.796;6.942;2022-08-25T14:37:54;35.20;66.10
52381;DHT22;38310;52.796;6.942;2022-08-25T14:40:20;35.00;65.70
52381;DHT22;38310;52.796;6.942;2022-08-25T14:42:47;35.30;66.60
52381;DHT22;38310;52.796;6.942;2022-08-25T14:45:15;34.90;65.60
52381;DHT22;38310;52.796;6.942;2022-08-25T14:47:41;34.80;65.80
52381;DHT22;38310;52.796;6.942;2022-08-25T14:50:09;35.00;66.40
52381;DHT22;38310;52.796;6.942;2022-08-25T14:52:36;34.60;65.50
52381;DHT22;38310;52.796;6.942;2022-08-25T14:55:04;34.70;67.10
52381;DHT22;38310;52.796;6.942;2022-08-25T14:57:31;34.40;66.40
52381;DHT22;38310;52.796;6.942;2022-08-25T14:59:57;34.50;66.70
52381;DHT22;38310;52.796;6.942;2022-08-25T15:02:23;34.40;66.70
52381;DHT22;38310;52.796;6.942;2022-08-25T15:04:55;34.00;66.60
52381;DHT22;38310;52.796;6.942;2022-08-25T15:07:24;33.70;63.00
52381;DHT22;38310;52.796;6.942;2022-08-25T15:10:09;33.70;64.70
52381;DHT22;38310;52.796;6.942;2022-08-25T15:12:35;33.40;63.30
52381;DHT22;38310;52.796;6.942;2022-08-25T15:15:01;33.20;64.40
52381;DHT22;38310;52.796;6.942;2022-08-25T15:17:28;33.20;64.60
52381;DHT22;38310;52.796;6.942;2022-08-25T15:19:54;33.00;64.30
52381;DHT22;38310;52.796;6.942;2022-08-25T15:22:20;32.60;63.10
52381;DHT22;38310;52.796;6.942;2022-08-25T15:24:48;32.70;63.30
52381;DHT22;38310;52.796;6.942;2022-08-25T15:27:17;32.70;64.50
52381;DHT22;38310;52.796;6.942;2022-08-25T15:29:43;32.70;64.60
52381;DHT22;38310;52.796;6.942;2022-08-25T15:32:09;32.70;65.00
52381;DHT22;38310;52.796;6.942;2022-08-25T15:34:35;32.70;64.90
52381;DHT22;38310;52.796;6.942;2022-08-25T15:37:10;32.70;65.50
52381;DHT22;38310;52.796;6.942;2022-08-25T15:39:37;32.70;65.80
52381;DHT22;38310;52.796;6.942;2022-08-25T15:42:04;32.60;66.00
52381;DHT22;38310;52.796;6.942;2022-08-25T15:44:30;32.60;65.90
52381;DHT22;38310;52.796;6.942;2022-08-25T15:46:57;32.40;66.00
52381;DHT22;38310;52.796;6.942;2022-08-25T15:49:23;32.20;66.00
52381;DHT22;38310;52.796;6.942;2022-08-25T15:51:53;32.20;66.30
52381;DHT22;38310;52.796;6.942;2022-08-25T15:54:20;32.20;66.70
52381;DHT22;38310;52.796;6.942;2022-08-25T15:56:46;32.20;67.20
52381;DHT22;38310;52.796;6.942;2022-08-25T15:59:12;32.10;67.00
52381;DHT22;38310;52.796;6.942;2022-08-25T16:01:39;32.00;66.50
52381;DHT22;38310;52.796;6.942;2022-08-25T16:04:05;32.00;66.70
52381;DHT22;38310;52.796;6.942;2022-08-25T16:06:31;32.00;67.50
52381;DHT22;38310;52.796;6.942;2022-08-25T16:08:57;31.80;67.10
52381;DHT22;38310;52.796;6.942;2022-08-25T16:11:26;31.80;67.30
52381;DHT22;38310;52.796;6.942;2022-08-25T16:13:53;31.60;67.30
52381;DHT22;38310;52.796;6.942;2022-08-25T16:16:24;31.60;67.70
52381;DHT22;38310;52.796;6.942;2022-08-25T16:18:51;31.60;68.20
52381;DHT22;38310;52.796;6.942;2022-08-25T16:21:20;31.50;68.00
52381;DHT22;38310;52.796;6.942;2022-08-25T16:23:48;31.50;68.70
52381;DHT22;38310;52.796;6.942;2022-08-25T16:26:16;31.40;68.50
52381;DHT22;38310;52.796;6.942;2022-08-25T16:28:43;31.30;68.50
52381;DHT22;38310;52.796;6.942;2022-08-25T16:31:11;31.20;69.00
52381;DHT22;38310;52.796;6.942;2022-08-25T16:33:37;31.20;69.30
52381;DHT22;38310;52.796;6.942;2022-08-25T16:38:38;31.10;69.30
52381;DHT22;38310;52.796;6.942;2022-08-25T16:41:10;31.00;69.70
52381;DHT22;38310;52.796;6.942;2022-08-25T16:43:36;31.00;69.80
52381;DHT22;38310;52.796;6.942;2022-08-25T16:46:05;30.80;69.30
52381;DHT22;38310;52.796;6.942;2022-08-25T16:48:32;30.80;69.60
52381;DHT22;38310;52.796;6.942;2022-08-25T16:50:58;30.70;69.80
52381;DHT22;38310;52.796;6.942;2022-08-25T16:53:24;30.70;70.30
52381;DHT22;38310;52.796;6.942;2022-08-25T16:56:08;30.60;70.10
52381;DHT22;38310;52.796;6.942;2022-08-25T16:58:36;30.60;70.60
52381;DHT22;38310;52.796;6.942;2022-08-25T17:01:10;30.50;71.10
52381;DHT22;38310;52.796;6.942;2022-08-25T17:03:38;30.50;71.40
52381;DHT22;38310;52.796;6.942;2022-08-25T17:06:05;30.40;71.80
52381;DHT22;38310;52.796;6.942;2022-08-25T17:08:33;30.40;72.00
52381;DHT22;38310;52.796;6.942;2022-08-25T17:11:21;30.40;72.50
52381;DHT22;38310;52.796;6.942;2022-08-25T17:13:52;30.40;73.40
52381;DHT22;38310;52.796;6.942;2022-08-25T17:16:20;30.30;73.20
52381;DHT22;38310;52.796;6.942;2022-08-25T17:18:47;30.20;73.80
52381;DHT22;38310;52.796;6.942;2022-08-25T17:21:14;30.10;74.70
52381;DHT22;38310;52.796;6.942;2022-08-25T17:23:42;30.20;74.60
52381;DHT22;38310;52.796;6.942;2022-08-25T17:26:11;30.10;74.70
52381;DHT22;38310;52.796;6.942;2022-08-25T17:28:37;30.10;74.30
52381;DHT22;38310;52.796;6.942;2022-08-25T17:31:05;30.10;75.40
52381;DHT22;38310;52.796;6.942;2022-08-25T17:33:31;30.10;75.90
52381;DHT22;38310;52.796;6.942;2022-08-25T17:35:57;30.10;76.00
52381;DHT22;38310;52.796;6.942;2022-08-25T17:38:24;30.10;75.80
52381;DHT22;38310;52.796;6.942;2022-08-25T17:40:55;30.00;76.60
52381;DHT22;38310;52.796;6.942;2022-08-25T17:43:22;30.00;76.00
52381;DHT22;38310;52.796;6.942;2022-08-25T17:45:51;29.90;77.50
52381;DHT22;38310;52.796;6.942;2022-08-25T17:48:18;29.90;77.80
52381;DHT22;38310;52.796;6.942;2022-08-25T17:50:43;29.80;78.50
52381;DHT22;38310;52.796;6.942;2022-08-25T17:53:11;29.60;79.50
52381;DHT22;38310;52.796;6.942;2022-08-25T17:55:38;29.60;80.40
52381;DHT22;38310;52.796;6.942;2022-08-25T17:58:05;29.50;81.20
52381;DHT22;38310;52.796;6.942;2022-08-25T18:00:31;29.30;81.70